sensor_id;sensor_type;location;lat;lon;timestamp;P1;durP1;ratioP1;P2;durP2;ratioP2
58414;SDS011;44210;42.706;18.344;2022-10-22T00:02:07;5.18;;;3.30;;
58414;SDS011;44210;42.706;18.344;2022-10-22T00:04:33;5.30;;;3.30;;
58414;SDS011;44210;42.706;18.344;2022-10-22T00:06:59;8.30;;;3.72;;
58414;SDS011;44210;42.706;18.344;2022-10-22T00:09:25;9.40;;;3.25;;
58414;SDS011;44210;42.706;18.344;2022-10-22T00:11:51;5.57;;;3.05;;
58414;SDS011;44210;42.706;18.344;2022-10-22T00:14:17;6.15;;;3.75;;
58414;SDS011;44210;42.706;18.344;2022-10-22T00:16:43;4.35;;;3.30;;
58414;SDS011;44210;42.706;18.344;2022-10-22T00:19:09;5.75;;;3.03;;
58414;SDS011;44210;42.706;18.344;2022-10-22T00:21:37;4.40;;;3.20;;
58414;SDS011;44210;42.706;18.344;2022-10-22T00:24:03;4.60;;;3.55;;
58414;SDS011;44210;42.706;18.344;2022-10-22T00:26:29;7.32;;;3.63;;
58414;SDS011;44210;42.706;18.344;2022-10-22T00:28:56;4.55;;;3.28;;
58414;SDS011;44210;42.706;18.344;2022-10-22T00:31:23;4.38;;;3.15;;
58414;SDS011;44210;42.706;18.344;2022-10-22T00:33:49;5.05;;;3.50;;
58414;SDS011;44210;42.706;18.344;2022-10-22T00:36:16;6.13;;;2.92;;
58414;SDS011;44210;42.706;18.344;2022-10-22T00:38:42;5.85;;;3.65;;
58414;SDS011;44210;42.706;18.344;2022-10-22T00:41:08;5.25;;;3.88;;
58414;SDS011;44210;42.706;18.344;2022-10-22T00:43:51;4.75;;;3.42;;
58414;SDS011;44210;42.706;18.344;2022-10-22T00:48:43;5.40;;;3.45;;
58414;SDS011;44210;42.706;18.344;2022-10-22T00:51:09;7.78;;;3.65;;
58414;SDS011;44210;42.706;18.344;2022-10-22T00:56:02;7.45;;;4.32;;
58414;SDS011;44210;42.706;18.344;2022-10-22T00:58:29;5.57;;;3.63;;
58414;SDS011;44210;42.706;18.344;2022-10-22T01:00:55;4.18;;;3.40;;
58414;SDS011;44210;42.706;18.344;2022-10-22T01:03:22;6.40;;;4.22;;
58414;SDS011;44210;42.706;18.344;2022-10-22T01:06:21;9.18;;;4.22;;
58414;SDS011;44210;42.706;18.344;2022-10-22T01:08:42;5.57;;;4.05;;
58414;SDS011;44210;42.706;18.344;2022-10-22T01:14:07;5.75;;;3.97;;
58414;SDS011;44210;42.706;18.344;2022-10-22T01:16:47;7.22;;;4.57;;
58414;SDS011;44210;42.706;18.344;2022-10-22T01:21:49;7.32;;;4.45;;
58414;SDS011;44210;42.706;18.344;2022-10-22T01:24:20;5.57;;;4.05;;
58414;SDS011;44210;42.706;18.344;2022-10-22T01:29:36;5.47;;;3.67;;
58414;SDS011;44210;42.706;18.344;2022-10-22T01:32:11;7.22;;;3.97;;
58414;SDS011;44210;42.706;18.344;2022-10-22T01:34:39;6.95;;;3.30;;
58414;SDS011;44210;42.706;18.344;2022-10-22T01:37:06;5.57;;;3.60;;
58414;SDS011;44210;42.706;18.344;2022-10-22T01:39:33;6.05;;;3.88;;
58414;SDS011;44210;42.706;18.344;2022-10-22T01:41:59;5.80;;;3.42;;
58414;SDS011;44210;42.706;18.344;2022-10-22T01:44:33;5.10;;;3.65;;
58414;SDS011;44210;42.706;18.344;2022-10-22T01:54:54;11.20;;;4.27;;
58414;SDS011;44210;42.706;18.344;2022-10-22T02:04:51;10.37;;;4.40;;
58414;SDS011;44210;42.706;18.344;2022-10-22T02:07:20;9.05;;;4.30;;
58414;SDS011;44210;42.706;18.344;2022-10-22T02:09:48;7.68;;;3.85;;
58414;SDS011;44210;42.706;18.344;2022-10-22T02:12:14;7.50;;;4.32;;
58414;SDS011;44210;42.706;18.344;2022-10-22T02:14:42;6.80;;;3.95;;
58414;SDS011;44210;42.706;18.344;2022-10-22T02:17:09;4.97;;;3.63;;
58414;SDS011;44210;42.706;18.344;2022-10-22T02:22:04;9.02;;;3.83;;
58414;SDS011;44210;42.706;18.344;2022-10-22T02:24:30;7.95;;;4.72;;
58414;SDS011;44210;42.706;18.344;2022-10-22T02:29:26;6.15;;;4.32;;
58414;SDS011;44210;42.706;18.344;2022-10-22T02:31:55;6.65;;;4.05;;
58414;SDS011;44210;42.706;18.344;2022-10-22T02:34:23;6.25;;;3.95;;
58414;SDS011;44210;42.706;18.344;2022-10-22T02:36:50;10.35;;;4.22;;
58414;SDS011;44210;42.706;18.344;2022-10-22T02:39:16;10.82;;;4.95;;
58414;SDS011;44210;42.706;18.344;2022-10-22T02:41:43;6.15;;;4.20;;
58414;SDS011;44210;42.706;18.344;2022-10-22T02:44:10;8.20;;;4.50;;
58414;SDS011;44210;42.706;18.344;2022-10-22T02:46:37;7.15;;;4.20;;
58414;SDS011;44210;42.706;18.344;2022-10-22T02:49:03;8.65;;;5.32;;
58414;SDS011;44210;42.706;18.344;2022-10-22T02:51:29;11.02;;;5.10;;
58414;SDS011;44210;42.706;18.344;2022-10-22T02:53:55;9.30;;;4.78;;
58414;SDS011;44210;42.706;18.344;2022-10-22T02:56:21;8.05;;;5.03;;
58414;SDS011;44210;42.706;18.344;2022-10-22T02:58:47;6.43;;;4.25;;
58414;SDS011;44210;42.706;18.344;2022-10-22T03:01:13;5.57;;;4.05;;
58414;SDS011;44210;42.706;18.344;2022-10-22T03:03:39;8.48;;;4.78;;
58414;SDS011;44210;42.706;18.344;2022-10-22T03:06:05;8.43;;;4.40;;
58414;SDS011;44210;42.706;18.344;2022-10-22T03:08:31;11.10;;;4.35;;
58414;SDS011;44210;42.706;18.344;2022-10-22T03:10:57;6.88;;;3.88;;
58414;SDS011;44210;42.706;18.344;2022-10-22T03:13:23;8.57;;;4.75;;
58414;SDS011;44210;42.706;18.344;2022-10-22T03:15:49;7.35;;;4.35;;
58414;SDS011;44210;42.706;18.344;2022-10-22T03:18:16;7.18;;;3.53;;
58414;SDS011;44210;42.706;18.344;2022-10-22T03:20:42;12.38;;;3.67;;
58414;SDS011;44210;42.706;18.344;2022-10-22T03:23:08;10.13;;;3.90;;
58414;SDS011;44210;42.706;18.344;2022-10-22T03:25:34;5.93;;;3.72;;
58414;SDS011;44210;42.706;18.344;2022-10-22T03:28:02;8.05;;;3.88;;
58414;SDS011;44210;42.706;18.344;2022-10-22T03:30:29;8.88;;;3.55;;
58414;SDS011;44210;42.706;18.344;2022-10-22T03:32:55;9.73;;;4.00;;
58414;SDS011;44210;42.706;18.344;2022-10-22T03:35:21;6.65;;;4.10;;
58414;SDS011;44210;42.706;18.344;2022-10-22T03:37:48;7.00;;;4.22;;
58414;SDS011;44210;42.706;18.344;2022-10-22T03:40:14;7.18;;;3.97;;
58414;SDS011;44210;42.706;18.344;2022-10-22T03:42:40;12.13;;;4.68;;
58414;SDS011;44210;42.706;18.344;2022-10-22T03:45:07;9.63;;;4.32;;
58414;SDS011;44210;42.706;18.344;2022-10-22T03:47:33;8.43;;;4.03;;
58414;SDS011;44210;42.706;18.344;2022-10-22T03:50:00;7.68;;;3.58;;
58414;SDS011;44210;42.706;18.344;2022-10-22T03:52:26;7.47;;;3.53;;
58414;SDS011;44210;42.706;18.344;2022-10-22T03:54:52;8.30;;;4.20;;
58414;SDS011;44210;42.706;18.344;2022-10-22T03:57:19;7.75;;;4.45;;
58414;SDS011;44210;42.706;18.344;2022-10-22T03:59:45;6.47;;;4.30;;
58414;SDS011;44210;42.706;18.344;2022-10-22T04:02:12;10.48;;;5.00;;
58414;SDS011;44210;42.706;18.344;2022-10-22T04:04:38;9.13;;;5.03;;
58414;SDS011;44210;42.706;18.344;2022-10-22T04:07:05;9.82;;;4.55;;
58414;SDS011;44210;42.706;18.344;2022-10-22T04:09:31;7.72;;;5.00;;
58414;SDS011;44210;42.706;18.344;2022-10-22T04:11:57;10.02;;;4.50;;
58414;SDS011;44210;42.706;18.344;2022-10-22T04:14:23;8.23;;;5.00;;
58414;SDS011;44210;42.706;18.344;2022-10-22T04:16:49;7.90;;;4.65;;
58414;SDS011;44210;42.706;18.344;2022-10-22T04:19:15;7.55;;;4.47;;
58414;SDS011;44210;42.706;18.344;2022-10-22T04:21:42;5.65;;;4.63;;
58414;SDS011;44210;42.706;18.344;2022-10-22T04:24:08;12.57;;;4.57;;
58414;SDS011;44210;42.706;18.344;2022-10-22T04:26:35;8.35;;;4.78;;
58414;SDS011;44210;42.706;18.344;2022-10-22T04:29:01;12.80;;;5.10;;
58414;SDS011;44210;42.706;18.344;2022-10-22T04:31:27;10.80;;;4.85;;
58414;SDS011;44210;42.706;18.344;2022-10-22T04:33:54;10.98;;;5.47;;
58414;SDS011;44210;42.706;18.344;2022-10-22T04:36:20;10.05;;;4.82;;
58414;SDS011;44210;42.706;18.344;2022-10-22T04:38:50;7.65;;;4.68;;
58414;SDS011;44210;42.706;18.344;2022-10-22T04:41:18;8.98;;;4.53;;
58414;SDS011;44210;42.706;18.344;2022-10-22T04:43:45;8.98;;;4.65;;
58414;SDS011;44210;42.706;18.344;2022-10-22T04:46:11;21.35;;;6.45;;
58414;SDS011;44210;42.706;18.344;2022-10-22T04:48:38;13.10;;;6.05;;
58414;SDS011;44210;42.706;18.344;2022-10-22T04:51:05;11.85;;;5.00;;
58414;SDS011;44210;42.706;18.344;2022-10-22T04:53:32;10.02;;;5.32;;
58414;SDS011;44210;42.706;18.344;2022-10-22T04:58:33;11.13;;;5.63;;
58414;SDS011;44210;42.706;18.344;2022-10-22T05:00:59;7.78;;;5.38;;
58414;SDS011;44210;42.706;18.344;2022-10-22T05:03:25;12.55;;;5.25;;
58414;SDS011;44210;42.706;18.344;2022-10-22T05:05:51;9.77;;;5.88;;
58414;SDS011;44210;42.706;18.344;2022-10-22T05:08:17;7.28;;;5.03;;
58414;SDS011;44210;42.706;18.344;2022-10-22T05:10:43;7.38;;;4.40;;
58414;SDS011;44210;42.706;18.344;2022-10-22T05:13:09;9.57;;;5.68;;
58414;SDS011;44210;42.706;18.344;2022-10-22T05:15:35;8.48;;;5.22;;
58414;SDS011;44210;42.706;18.344;2022-10-22T05:18:01;10.50;;;4.97;;
58414;SDS011;44210;42.706;18.344;2022-10-22T05:20:27;7.25;;;4.72;;
58414;SDS011;44210;42.706;18.344;2022-10-22T05:22:53;7.00;;;4.00;;
58414;SDS011;44210;42.706;18.344;2022-10-22T05:25:19;9.45;;;4.63;;
58414;SDS011;44210;42.706;18.344;2022-10-22T05:27:47;5.90;;;3.97;;
58414;SDS011;44210;42.706;18.344;2022-10-22T05:30:14;7.20;;;4.22;;
58414;SDS011;44210;42.706;18.344;2022-10-22T05:32:40;14.25;;;7.70;;
58414;SDS011;44210;42.706;18.344;2022-10-22T05:35:06;18.65;;;11.60;;
58414;SDS011;44210;42.706;18.344;2022-10-22T05:37:32;13.38;;;9.48;;
58414;SDS011;44210;42.706;18.344;2022-10-22T05:39:58;12.35;;;5.40;;
58414;SDS011;44210;42.706;18.344;2022-10-22T05:42:24;13.75;;;6.85;;
58414;SDS011;44210;42.706;18.344;2022-10-22T05:44:50;14.18;;;8.60;;
58414;SDS011;44210;42.706;18.344;2022-10-22T05:47:17;13.07;;;7.30;;
58414;SDS011;44210;42.706;18.344;2022-10-22T05:49:43;14.20;;;5.72;;
58414;SDS011;44210;42.706;18.344;2022-10-22T05:52:10;11.07;;;6.05;;
58414;SDS011;44210;42.706;18.344;2022-10-22T05:54:36;17.85;;;7.00;;
58414;SDS011;44210;42.706;18.344;2022-10-22T05:57:02;8.00;;;5.53;;
58414;SDS011;44210;42.706;18.344;2022-10-22T05:59:28;11.68;;;6.43;;
58414;SDS011;44210;42.706;18.344;2022-10-22T06:01:54;12.55;;;6.60;;
58414;SDS011;44210;42.706;18.344;2022-10-22T06:04:20;12.02;;;6.32;;
58414;SDS011;44210;42.706;18.344;2022-10-22T06:06:47;11.88;;;6.00;;
58414;SDS011;44210;42.706;18.344;2022-10-22T06:09:26;8.77;;;6.13;;
58414;SDS011;44210;42.706;18.344;2022-10-22T06:11:54;10.30;;;6.25;;
58414;SDS011;44210;42.706;18.344;2022-10-22T06:14:20;9.02;;;6.40;;
58414;SDS011;44210;42.706;18.344;2022-10-22T06:16:47;13.57;;;9.23;;
58414;SDS011;44210;42.706;18.344;2022-10-22T06:19:14;13.95;;;8.57;;
58414;SDS011;44210;42.706;18.344;2022-10-22T06:21:40;10.85;;;7.20;;
58414;SDS011;44210;42.706;18.344;2022-10-22T06:24:06;12.80;;;7.10;;
58414;SDS011;44210;42.706;18.344;2022-10-22T06:26:33;9.90;;;6.28;;
58414;SDS011;44210;42.706;18.344;2022-10-22T06:28:59;7.80;;;5.10;;
58414;SDS011;44210;42.706;18.344;2022-10-22T06:31:26;8.68;;;5.20;;
58414;SDS011;44210;42.706;18.344;2022-10-22T06:33:52;10.55;;;5.35;;
58414;SDS011;44210;42.706;18.344;2022-10-22T06:36:19;8.23;;;5.22;;
58414;SDS011;44210;42.706;18.344;2022-10-22T06:38:46;8.18;;;5.25;;
58414;SDS011;44210;42.706;18.344;2022-10-22T06:41:13;13.27;;;5.15;;
58414;SDS011;44210;42.706;18.344;2022-10-22T06:43:39;11.50;;;5.65;;
58414;SDS011;44210;42.706;18.344;2022-10-22T06:46:06;11.10;;;5.97;;
58414;SDS011;44210;42.706;18.344;2022-10-22T06:48:36;9.30;;;6.45;;
58414;SDS011;44210;42.706;18.344;2022-10-22T06:51:05;11.90;;;8.43;;
58414;SDS011;44210;42.706;18.344;2022-10-22T06:53:31;14.80;;;8.18;;
58414;SDS011;44210;42.706;18.344;2022-10-22T06:55:57;11.63;;;9.43;;
58414;SDS011;44210;42.706;18.344;2022-10-22T06:58:23;14.80;;;8.45;;
58414;SDS011;44210;42.706;18.344;2022-10-22T07:00:58;12.80;;;8.75;;
58414;SDS011;44210;42.706;18.344;2022-10-22T07:03:25;10.60;;;8.20;;
58414;SDS011;44210;42.706;18.344;2022-10-22T07:05:51;10.95;;;7.13;;
58414;SDS011;44210;42.706;18.344;2022-10-22T07:08:17;13.75;;;7.38;;
58414;SDS011;44210;42.706;18.344;2022-10-22T07:10:43;11.18;;;6.90;;
58414;SDS011;44210;42.706;18.344;2022-10-22T07:13:09;10.50;;;7.30;;
58414;SDS011;44210;42.706;18.344;2022-10-22T07:15:35;15.98;;;7.28;;
58414;SDS011;44210;42.706;18.344;2022-10-22T07:18:01;10.98;;;6.35;;
58414;SDS011;44210;42.706;18.344;2022-10-22T07:20:28;8.77;;;4.75;;
58414;SDS011;44210;42.706;18.344;2022-10-22T07:22:54;8.18;;;4.32;;
58414;SDS011;44210;42.706;18.344;2022-10-22T07:25:20;6.95;;;4.13;;
58414;SDS011;44210;42.706;18.344;2022-10-22T07:27:46;11.35;;;4.75;;
58414;SDS011;44210;42.706;18.344;2022-10-22T07:30:12;7.80;;;4.88;;
58414;SDS011;44210;42.706;18.344;2022-10-22T07:32:38;7.05;;;4.63;;
58414;SDS011;44210;42.706;18.344;2022-10-22T07:35:05;8.82;;;5.00;;
58414;SDS011;44210;42.706;18.344;2022-10-22T07:37:31;11.57;;;5.10;;
58414;SDS011;44210;42.706;18.344;2022-10-22T07:39:57;13.98;;;5.95;;
58414;SDS011;44210;42.706;18.344;2022-10-22T07:42:23;9.00;;;5.28;;
58414;SDS011;44210;42.706;18.344;2022-10-22T07:44:49;7.20;;;5.38;;
58414;SDS011;44210;42.706;18.344;2022-10-22T07:47:15;14.20;;;6.63;;
58414;SDS011;44210;42.706;18.344;2022-10-22T07:49:41;14.95;;;6.40;;
58414;SDS011;44210;42.706;18.344;2022-10-22T07:52:07;9.70;;;6.60;;
58414;SDS011;44210;42.706;18.344;2022-10-22T07:54:33;9.65;;;5.88;;
58414;SDS011;44210;42.706;18.344;2022-10-22T07:56:59;11.40;;;5.95;;
58414;SDS011;44210;42.706;18.344;2022-10-22T07:59:25;9.20;;;4.82;;
58414;SDS011;44210;42.706;18.344;2022-10-22T08:01:51;7.75;;;5.80;;
58414;SDS011;44210;42.706;18.344;2022-10-22T08:04:17;7.50;;;5.05;;
58414;SDS011;44210;42.706;18.344;2022-10-22T08:06:43;6.82;;;4.78;;
58414;SDS011;44210;42.706;18.344;2022-10-22T08:09:09;9.23;;;5.78;;
58414;SDS011;44210;42.706;18.344;2022-10-22T08:11:35;9.38;;;5.05;;
58414;SDS011;44210;42.706;18.344;2022-10-22T08:14:02;11.00;;;4.45;;
58414;SDS011;44210;42.706;18.344;2022-10-22T08:16:28;6.38;;;4.65;;
58414;SDS011;44210;42.706;18.344;2022-10-22T08:18:54;7.18;;;4.72;;
58414;SDS011;44210;42.706;18.344;2022-10-22T08:21:20;8.73;;;4.55;;
58414;SDS011;44210;42.706;18.344;2022-10-22T08:23:46;11.10;;;4.65;;
58414;SDS011;44210;42.706;18.344;2022-10-22T08:26:12;5.13;;;4.22;;
58414;SDS011;44210;42.706;18.344;2022-10-22T08:28:38;8.73;;;4.60;;
58414;SDS011;44210;42.706;18.344;2022-10-22T08:31:05;12.13;;;4.38;;
58414;SDS011;44210;42.706;18.344;2022-10-22T08:33:31;7.07;;;4.20;;
58414;SDS011;44210;42.706;18.344;2022-10-22T08:35:58;7.90;;;3.75;;
58414;SDS011;44210;42.706;18.344;2022-10-22T08:38:24;7.78;;;4.90;;
58414;SDS011;44210;42.706;18.344;2022-10-22T08:40:55;10.63;;;4.22;;
58414;SDS011;44210;42.706;18.344;2022-10-22T08:46:25;6.50;;;4.30;;
58414;SDS011;44210;42.706;18.344;2022-10-22T08:48:53;8.65;;;4.45;;
58414;SDS011;44210;42.706;18.344;2022-10-22T08:51:21;11.18;;;5.38;;
58414;SDS011;44210;42.706;18.344;2022-10-22T08:56:33;8.23;;;5.05;;
58414;SDS011;44210;42.706;18.344;2022-10-22T08:59:21;9.35;;;5.75;;
58414;SDS011;44210;42.706;18.344;2022-10-22T09:01:48;7.72;;;5.18;;
58414;SDS011;44210;42.706;18.344;2022-10-22T09:07:00;11.02;;;5.43;;
58414;SDS011;44210;42.706;18.344;2022-10-22T09:09:29;11.65;;;6.25;;
58414;SDS011;44210;42.706;18.344;2022-10-22T09:11:57;7.63;;;5.93;;
58414;SDS011;44210;42.706;18.344;2022-10-22T09:14:24;13.50;;;4.97;;
58414;SDS011;44210;42.706;18.344;2022-10-22T09:22:06;9.10;;;5.97;;
58414;SDS011;44210;42.706;18.344;2022-10-22T09:24:38;11.52;;;5.95;;
58414;SDS011;44210;42.706;18.344;2022-10-22T09:27:12;8.35;;;5.50;;
58414;SDS011;44210;42.706;18.344;2022-10-22T09:29:39;19.10;;;5.75;;
58414;SDS011;44210;42.706;18.344;2022-10-22T09:32:05;10.43;;;5.70;;
58414;SDS011;44210;42.706;18.344;2022-10-22T09:34:32;11.98;;;5.45;;
58414;SDS011;44210;42.706;18.344;2022-10-22T09:36:59;8.85;;;5.10;;
58414;SDS011;44210;42.706;18.344;2022-10-22T09:39:27;6.28;;;4.95;;
58414;SDS011;44210;42.706;18.344;2022-10-22T09:41:53;9.07;;;5.18;;
58414;SDS011;44210;42.706;18.344;2022-10-22T09:44:19;6.75;;;4.45;;
58414;SDS011;44210;42.706;18.344;2022-10-22T09:46:45;12.30;;;4.93;;
58414;SDS011;44210;42.706;18.344;2022-10-22T09:49:13;8.05;;;4.57;;
58414;SDS011;44210;42.706;18.344;2022-10-22T09:52:00;5.47;;;4.18;;
58414;SDS011;44210;42.706;18.344;2022-10-22T09:59:25;10.75;;;3.50;;
58414;SDS011;44210;42.706;18.344;2022-10-22T10:01:56;5.68;;;3.80;;
58414;SDS011;44210;42.706;18.344;2022-10-22T10:04:23;5.75;;;3.65;;
58414;SDS011;44210;42.706;18.344;2022-10-22T10:06:52;4.03;;;3.53;;
58414;SDS011;44210;42.706;18.344;2022-10-22T10:09:20;5.13;;;3.63;;
58414;SDS011;44210;42.706;18.344;2022-10-22T10:14:37;7.05;;;4.00;;
58414;SDS011;44210;42.706;18.344;2022-10-22T10:22:25;4.88;;;3.78;;
58414;SDS011;44210;42.706;18.344;2022-10-22T10:27:30;8.80;;;3.72;;
58414;SDS011;44210;42.706;18.344;2022-10-22T10:35:35;9.68;;;3.88;;
58414;SDS011;44210;42.706;18.344;2022-10-22T10:43:01;5.18;;;3.90;;
58414;SDS011;44210;42.706;18.344;2022-10-22T10:45:50;5.65;;;3.78;;
58414;SDS011;44210;42.706;18.344;2022-10-22T10:48:29;6.53;;;3.90;;
58414;SDS011;44210;42.706;18.344;2022-10-22T11:05:59;5.32;;;3.88;;
58414;SDS011;44210;42.706;18.344;2022-10-22T11:08:30;12.68;;;4.28;;
58414;SDS011;44210;42.706;18.344;2022-10-22T11:11:16;8.25;;;4.90;;
58414;SDS011;44210;42.706;18.344;2022-10-22T11:13:55;6.80;;;4.13;;
58414;SDS011;44210;42.706;18.344;2022-10-22T11:18:57;5.15;;;3.92;;
58414;SDS011;44210;42.706;18.344;2022-10-22T11:21:38;5.28;;;3.92;;
58414;SDS011;44210;42.706;18.344;2022-10-22T11:29:39;7.20;;;4.38;;
58414;SDS011;44210;42.706;18.344;2022-10-22T11:32:10;6.85;;;4.95;;
58414;SDS011;44210;42.706;18.344;2022-10-22T11:34:44;7.20;;;4.22;;
58414;SDS011;44210;42.706;18.344;2022-10-22T11:37:11;7.45;;;4.30;;
58414;SDS011;44210;42.706;18.344;2022-10-22T11:42:11;6.30;;;4.60;;
58414;SDS011;44210;42.706;18.344;2022-10-22T11:44:48;5.63;;;4.60;;
58414;SDS011;44210;42.706;18.344;2022-10-22T11:47:24;6.32;;;4.78;;
58414;SDS011;44210;42.706;18.344;2022-10-22T11:55:30;5.18;;;4.40;;
58414;SDS011;44210;42.706;18.344;2022-10-22T11:57:58;8.45;;;4.82;;
58414;SDS011;44210;42.706;18.344;2022-10-22T12:00:36;5.18;;;4.10;;
58414;SDS011;44210;42.706;18.344;2022-10-22T12:03:17;8.27;;;5.20;;
58414;SDS011;44210;42.706;18.344;2022-10-22T12:05:44;6.32;;;4.22;;
58414;SDS011;44210;42.706;18.344;2022-10-22T12:16:26;5.45;;;4.20;;
58414;SDS011;44210;42.706;18.344;2022-10-22T12:18:57;8.70;;;4.30;;
58414;SDS011;44210;42.706;18.344;2022-10-22T12:21:25;5.38;;;4.65;;
58414;SDS011;44210;42.706;18.344;2022-10-22T12:23:51;6.75;;;4.30;;
58414;SDS011;44210;42.706;18.344;2022-10-22T12:26:21;7.10;;;4.95;;
58414;SDS011;44210;42.706;18.344;2022-10-22T12:28:48;10.15;;;4.88;;
58414;SDS011;44210;42.706;18.344;2022-10-22T12:31:14;5.93;;;5.10;;
58414;SDS011;44210;42.706;18.344;2022-10-22T12:33:40;7.57;;;4.90;;
58414;SDS011;44210;42.706;18.344;2022-10-22T12:36:13;5.60;;;4.95;;
58414;SDS011;44210;42.706;18.344;2022-10-22T12:38:39;7.25;;;4.70;;
58414;SDS011;44210;42.706;18.344;2022-10-22T12:41:11;7.03;;;4.97;;
58414;SDS011;44210;42.706;18.344;2022-10-22T12:43:37;5.88;;;4.80;;
58414;SDS011;44210;42.706;18.344;2022-10-22T12:46:12;5.80;;;4.70;;
58414;SDS011;44210;42.706;18.344;2022-10-22T12:48:41;7.60;;;4.65;;
58414;SDS011;44210;42.706;18.344;2022-10-22T12:51:08;5.40;;;4.85;;
58414;SDS011;44210;42.706;18.344;2022-10-22T12:53:35;8.75;;;6.18;;
58414;SDS011;44210;42.706;18.344;2022-10-22T12:56:21;8.38;;;5.57;;
58414;SDS011;44210;42.706;18.344;2022-10-22T12:58:50;8.02;;;4.90;;
58414;SDS011;44210;42.706;18.344;2022-10-22T13:01:17;7.28;;;4.95;;
58414;SDS011;44210;42.706;18.344;2022-10-22T13:03:50;6.15;;;5.22;;
58414;SDS011;44210;42.706;18.344;2022-10-22T13:06:28;8.20;;;5.45;;
58414;SDS011;44210;42.706;18.344;2022-10-22T13:09:02;9.02;;;5.68;;
58414;SDS011;44210;42.706;18.344;2022-10-22T13:11:41;8.77;;;5.22;;
58414;SDS011;44210;42.706;18.344;2022-10-22T13:19:59;6.82;;;5.20;;
58414;SDS011;44210;42.706;18.344;2022-10-22T13:22:33;8.45;;;5.22;;
58414;SDS011;44210;42.706;18.344;2022-10-22T13:25:41;6.60;;;5.22;;
58414;SDS011;44210;42.706;18.344;2022-10-22T13:27:59;7.00;;;6.03;;
58414;SDS011;44210;42.706;18.344;2022-10-22T13:30:29;8.90;;;4.85;;
58414;SDS011;44210;42.706;18.344;2022-10-22T13:32:59;9.45;;;5.40;;
58414;SDS011;44210;42.706;18.344;2022-10-22T13:35:26;7.03;;;5.68;;
58414;SDS011;44210;42.706;18.344;2022-10-22T13:37:53;7.10;;;5.82;;
58414;SDS011;44210;42.706;18.344;2022-10-22T13:40:19;8.70;;;5.63;;
58414;SDS011;44210;42.706;18.344;2022-10-22T13:42:45;7.35;;;6.03;;
58414;SDS011;44210;42.706;18.344;2022-10-22T13:45:11;6.03;;;4.90;;
58414;SDS011;44210;42.706;18.344;2022-10-22T13:47:38;5.63;;;5.00;;
58414;SDS011;44210;42.706;18.344;2022-10-22T13:50:10;7.82;;;5.75;;
58414;SDS011;44210;42.706;18.344;2022-10-22T13:52:44;9.00;;;6.00;;
58414;SDS011;44210;42.706;18.344;2022-10-22T13:57:45;11.55;;;7.80;;
58414;SDS011;44210;42.706;18.344;2022-10-22T14:00:15;11.27;;;6.43;;
58414;SDS011;44210;42.706;18.344;2022-10-22T14:02:42;10.15;;;6.18;;
58414;SDS011;44210;42.706;18.344;2022-10-22T14:05:08;9.60;;;6.72;;
58414;SDS011;44210;42.706;18.344;2022-10-22T14:07:35;10.48;;;6.10;;
58414;SDS011;44210;42.706;18.344;2022-10-22T14:10:02;7.00;;;5.40;;
58414;SDS011;44210;42.706;18.344;2022-10-22T14:12:28;5.30;;;4.75;;
58414;SDS011;44210;42.706;18.344;2022-10-22T14:14:55;7.82;;;5.30;;
58414;SDS011;44210;42.706;18.344;2022-10-22T14:17:21;7.30;;;4.60;;
58414;SDS011;44210;42.706;18.344;2022-10-22T14:19:47;5.78;;;4.40;;
58414;SDS011;44210;42.706;18.344;2022-10-22T14:22:15;8.80;;;5.03;;
58414;SDS011;44210;42.706;18.344;2022-10-22T14:24:41;7.32;;;5.75;;
58414;SDS011;44210;42.706;18.344;2022-10-22T14:27:08;5.72;;;5.13;;
58414;SDS011;44210;42.706;18.344;2022-10-22T14:29:35;6.70;;;5.43;;
58414;SDS011;44210;42.706;18.344;2022-10-22T14:32:01;6.40;;;5.80;;
58414;SDS011;44210;42.706;18.344;2022-10-22T14:34:27;8.27;;;5.88;;
58414;SDS011;44210;42.706;18.344;2022-10-22T14:36:53;6.65;;;5.68;;
58414;SDS011;44210;42.706;18.344;2022-10-22T14:39:19;6.32;;;5.72;;
58414;SDS011;44210;42.706;18.344;2022-10-22T14:41:45;8.20;;;5.78;;
58414;SDS011;44210;42.706;18.344;2022-10-22T14:44:11;9.88;;;6.25;;
58414;SDS011;44210;42.706;18.344;2022-10-22T14:46:38;9.63;;;6.65;;
58414;SDS011;44210;42.706;18.344;2022-10-22T14:49:06;8.73;;;6.65;;
58414;SDS011;44210;42.706;18.344;2022-10-22T14:51:32;10.13;;;6.97;;
58414;SDS011;44210;42.706;18.344;2022-10-22T14:53:58;10.82;;;6.90;;
58414;SDS011;44210;42.706;18.344;2022-10-22T14:56:24;7.10;;;5.53;;
58414;SDS011;44210;42.706;18.344;2022-10-22T14:58:50;6.20;;;5.60;;
58414;SDS011;44210;42.706;18.344;2022-10-22T15:01:17;7.10;;;6.28;;
58414;SDS011;44210;42.706;18.344;2022-10-22T15:03:43;10.10;;;6.78;;
58414;SDS011;44210;42.706;18.344;2022-10-22T15:06:10;8.63;;;6.95;;
58414;SDS011;44210;42.706;18.344;2022-10-22T15:08:36;15.93;;;6.65;;
58414;SDS011;44210;42.706;18.344;2022-10-22T15:11:03;10.50;;;7.57;;
58414;SDS011;44210;42.706;18.344;2022-10-22T15:13:30;8.43;;;7.07;;
58414;SDS011;44210;42.706;18.344;2022-10-22T15:15:56;17.65;;;13.10;;
58414;SDS011;44210;42.706;18.344;2022-10-22T15:18:23;23.92;;;18.98;;
58414;SDS011;44210;42.706;18.344;2022-10-22T15:23:21;29.13;;;16.43;;
58414;SDS011;44210;42.706;18.344;2022-10-22T15:25:47;16.92;;;12.15;;
58414;SDS011;44210;42.706;18.344;2022-10-22T15:28:13;13.75;;;10.15;;
58414;SDS011;44210;42.706;18.344;2022-10-22T15:30:39;9.75;;;8.15;;
58414;SDS011;44210;42.706;18.344;2022-10-22T15:33:05;12.02;;;8.63;;
58414;SDS011;44210;42.706;18.344;2022-10-22T15:35:31;13.10;;;7.45;;
58414;SDS011;44210;42.706;18.344;2022-10-22T15:37:57;10.70;;;7.35;;
58414;SDS011;44210;42.706;18.344;2022-10-22T15:40:23;11.32;;;7.13;;
58414;SDS011;44210;42.706;18.344;2022-10-22T15:42:49;7.80;;;7.00;;
58414;SDS011;44210;42.706;18.344;2022-10-22T15:45:15;8.85;;;7.10;;
58414;SDS011;44210;42.706;18.344;2022-10-22T15:47:44;10.32;;;6.93;;
58414;SDS011;44210;42.706;18.344;2022-10-22T15:50:11;7.18;;;6.47;;
58414;SDS011;44210;42.706;18.344;2022-10-22T15:52:37;9.57;;;6.80;;
58414;SDS011;44210;42.706;18.344;2022-10-22T15:55:03;7.45;;;6.65;;
58414;SDS011;44210;42.706;18.344;2022-10-22T15:57:31;9.43;;;6.70;;
58414;SDS011;44210;42.706;18.344;2022-10-22T15:59:57;8.68;;;6.07;;
58414;SDS011;44210;42.706;18.344;2022-10-22T16:02:23;9.77;;;7.57;;
58414;SDS011;44210;42.706;18.344;2022-10-22T16:04:49;9.48;;;8.25;;
58414;SDS011;44210;42.706;18.344;2022-10-22T16:07:15;13.32;;;8.32;;
58414;SDS011;44210;42.706;18.344;2022-10-22T16:09:41;11.02;;;8.10;;
58414;SDS011;44210;42.706;18.344;2022-10-22T16:12:07;10.20;;;8.70;;
58414;SDS011;44210;42.706;18.344;2022-10-22T16:14:33;14.73;;;9.13;;
58414;SDS011;44210;42.706;18.344;2022-10-22T16:16:59;16.85;;;9.10;;
58414;SDS011;44210;42.706;18.344;2022-10-22T16:19:25;13.60;;;9.02;;
58414;SDS011;44210;42.706;18.344;2022-10-22T16:21:52;10.20;;;8.90;;
58414;SDS011;44210;42.706;18.344;2022-10-22T16:24:18;16.83;;;10.52;;
58414;SDS011;44210;42.706;18.344;2022-10-22T16:26:45;11.02;;;9.85;;
58414;SDS011;44210;42.706;18.344;2022-10-22T16:29:11;14.38;;;10.27;;
58414;SDS011;44210;42.706;18.344;2022-10-22T16:31:37;13.85;;;9.88;;
58414;SDS011;44210;42.706;18.344;2022-10-22T16:34:04;12.40;;;10.48;;
58414;SDS011;44210;42.706;18.344;2022-10-22T16:36:30;15.07;;;10.88;;
58414;SDS011;44210;42.706;18.344;2022-10-22T16:38:56;12.35;;;9.38;;
58414;SDS011;44210;42.706;18.344;2022-10-22T16:41:23;12.23;;;9.82;;